sensor_id;sensor_type;location;lat;lon;timestamp;temperature;humidity
30288;DHT22;17103;48.316;11.558;2023-07-13T00:01:13;23.90;60.50
30288;DHT22;17103;48.316;11.558;2023-07-13T00:03:39;23.90;61.60
30288;DHT22;17103;48.316;11.558;2023-07-13T00:06:07;23.90;62.00
30288;DHT22;17103;48.316;11.558;2023-07-13T00:08:34;23.80;62.10
30288;DHT22;17103;48.316;11.558;2023-07-13T00:11:03;23.80;63.00
30288;DHT22;17103;48.316;11.558;2023-07-13T00:13:30;23.80;62.50
30288;DHT22;17103;48.316;11.558;2023-07-13T00:15:57;23.80;62.40
30288;DHT22;17103;48.316;11.558;2023-07-13T00:18:23;23.80;62.50
30288;DHT22;17103;48.316;11.558;2023-07-13T00:20:49;23.70;62.40
30288;DHT22;17103;48.316;11.558;2023-07-13T00:23:16;23.70;62.90
30288;DHT22;17103;48.316;11.558;2023-07-13T00:25:42;23.80;62.90
30288;DHT22;17103;48.316;11.558;2023-07-13T00:28:08;23.70;62.70
30288;DHT22;17103;48.316;11.558;2023-07-13T00:30:34;23.80;63.30
30288;DHT22;17103;48.316;11.558;2023-07-13T00:32:59;23.70;62.90
30288;DHT22;17103;48.316;11.558;2023-07-13T00:35:27;23.80;63.00
30288;DHT22;17103;48.316;11.558;2023-07-13T00:37:55;23.80;62.90
30288;DHT22;17103;48.316;11.558;2023-07-13T00:40:21;23.80;62.90
30288;DHT22;17103;48.316;11.558;2023-07-13T00:42:47;23.90;63.00
30288;DHT22;17103;48.316;11.558;2023-07-13T00:47:39;23.90;62.50
30288;DHT22;17103;48.316;11.558;2023-07-13T00:50:08;23.90;62.20
30288;DHT22;17103;48.316;11.558;2023-07-13T00:52:36;23.90;61.70
30288;DHT22;17103;48.316;11.558;2023-07-13T00:55:03;23.90;61.90
30288;DHT22;17103;48.316;11.558;2023-07-13T00:57:29;24.00;62.10
30288;DHT22;17103;48.316;11.558;2023-07-13T00:59:58;23.90;61.80
30288;DHT22;17103;48.316;11.558;2023-07-13T01:02:25;24.00;62.00
30288;DHT22;17103;48.316;11.558;2023-07-13T01:04:51;23.90;61.90
30288;DHT22;17103;48.316;11.558;2023-07-13T01:07:18;23.90;61.80
30288;DHT22;17103;48.316;11.558;2023-07-13T01:09:44;24.00;61.90
30288;DHT22;17103;48.316;11.558;2023-07-13T01:12:11;24.00;61.80
30288;DHT22;17103;48.316;11.558;2023-07-13T01:14:36;24.00;62.00
30288;DHT22;17103;48.316;11.558;2023-07-13T01:17:03;24.00;62.00
30288;DHT22;17103;48.316;11.558;2023-07-13T01:19:38;24.00;61.50
30288;DHT22;17103;48.316;11.558;2023-07-13T01:22:18;24.00;61.70
30288;DHT22;17103;48.316;11.558;2023-07-13T01:24:47;24.10;62.00
30288;DHT22;17103;48.316;11.558;2023-07-13T01:27:16;24.10;61.80
30288;DHT22;17103;48.316;11.558;2023-07-13T01:29:44;24.10;61.40
30288;DHT22;17103;48.316;11.558;2023-07-13T01:32:24;24.10;61.50
30288;DHT22;17103;48.316;11.558;2023-07-13T01:34:52;24.10;61.50
30288;DHT22;17103;48.316;11.558;2023-07-13T01:37:20;24.10;61.20
30288;DHT22;17103;48.316;11.558;2023-07-13T01:39:47;24.10;61.40
30288;DHT22;17103;48.316;11.558;2023-07-13T01:42:13;24.10;61.60
30288;DHT22;17103;48.316;11.558;2023-07-13T01:44:39;24.10;61.40
30288;DHT22;17103;48.316;11.558;2023-07-13T01:47:05;24.00;61.10
30288;DHT22;17103;48.316;11.558;2023-07-13T01:49:31;24.00;60.80
30288;DHT22;17103;48.316;11.558;2023-07-13T01:51:56;24.00;60.10
30288;DHT22;17103;48.316;11.558;2023-07-13T01:54:22;23.90;59.80
30288;DHT22;17103;48.316;11.558;2023-07-13T01:56:48;23.90;59.80
30288;DHT22;17103;48.316;11.558;2023-07-13T01:59:13;23.90;60.00
30288;DHT22;17103;48.316;11.558;2023-07-13T02:01:39;23.80;60.20
30288;DHT22;17103;48.316;11.558;2023-07-13T02:04:05;23.70;60.50
30288;DHT22;17103;48.316;11.558;2023-07-13T02:06:30;23.70;61.10
30288;DHT22;17103;48.316;11.558;2023-07-13T02:08:57;23.60;61.30
30288;DHT22;17103;48.316;11.558;2023-07-13T02:11:22;23.60;61.60
30288;DHT22;17103;48.316;11.558;2023-07-13T02:13:48;23.50;61.90
30288;DHT22;17103;48.316;11.558;2023-07-13T02:16:14;23.60;61.90
30288;DHT22;17103;48.316;11.558;2023-07-13T02:18:39;23.50;61.90
30288;DHT22;17103;48.316;11.558;2023-07-13T02:21:05;23.50;61.70
30288;DHT22;17103;48.316;11.558;2023-07-13T02:23:31;23.60;61.80
30288;DHT22;17103;48.316;11.558;2023-07-13T02:25:57;23.50;62.00
30288;DHT22;17103;48.316;11.558;2023-07-13T02:28:23;23.60;62.30
30288;DHT22;17103;48.316;11.558;2023-07-13T02:30:49;23.60;62.30
30288;DHT22;17103;48.316;11.558;2023-07-13T02:33:15;23.50;62.10
30288;DHT22;17103;48.316;11.558;2023-07-13T02:35:41;23.60;62.50
30288;DHT22;17103;48.316;11.558;2023-07-13T02:38:06;23.50;62.40
30288;DHT22;17103;48.316;11.558;2023-07-13T02:40:32;23.60;62.40
30288;DHT22;17103;48.316;11.558;2023-07-13T02:43:01;23.60;62.30
30288;DHT22;17103;48.316;11.558;2023-07-13T02:45:27;23.60;62.60
30288;DHT22;17103;48.316;11.558;2023-07-13T02:47:53;23.70;62.40
30288;DHT22;17103;48.316;11.558;2023-07-13T02:50:19;23.60;62.30
30288;DHT22;17103;48.316;11.558;2023-07-13T02:52:45;23.60;62.50
30288;DHT22;17103;48.316;11.558;2023-07-13T02:55:10;23.60;63.00
30288;DHT22;17103;48.316;11.558;2023-07-13T02:57:36;23.60;63.10
30288;DHT22;17103;48.316;11.558;2023-07-13T03:00:03;23.50;63.30
30288;DHT22;17103;48.316;11.558;2023-07-13T03:02:33;23.50;63.50
30288;DHT22;17103;48.316;11.558;2023-07-13T03:04:59;23.50;63.80
30288;DHT22;17103;48.316;11.558;2023-07-13T03:07:25;23.50;63.50
30288;DHT22;17103;48.316;11.558;2023-07-13T03:10:00;23.30;64.50
30288;DHT22;17103;48.316;11.558;2023-07-13T03:12:25;23.40;65.00
30288;DHT22;17103;48.316;11.558;2023-07-13T03:14:51;23.30;63.60
30288;DHT22;17103;48.316;11.558;2023-07-13T03:17:17;23.20;63.50
30288;DHT22;17103;48.316;11.558;2023-07-13T03:19:45;23.30;64.00
30288;DHT22;17103;48.316;11.558;2023-07-13T03:22:16;23.20;64.90
30288;DHT22;17103;48.316;11.558;2023-07-13T03:24:41;23.10;64.70
30288;DHT22;17103;48.316;11.558;2023-07-13T03:27:07;23.10;65.20
30288;DHT22;17103;48.316;11.558;2023-07-13T03:29:32;23.00;65.70
30288;DHT22;17103;48.316;11.558;2023-07-13T03:31:59;22.90;65.50
30288;DHT22;17103;48.316;11.558;2023-07-13T03:34:25;22.90;66.40
30288;DHT22;17103;48.316;11.558;2023-07-13T03:36:53;22.80;66.10
30288;DHT22;17103;48.316;11.558;2023-07-13T03:39:18;22.80;66.80
30288;DHT22;17103;48.316;11.558;2023-07-13T03:41:44;22.80;66.90
30288;DHT22;17103;48.316;11.558;2023-07-13T03:44:10;22.70;67.30
30288;DHT22;17103;48.316;11.558;2023-07-13T03:46:36;22.70;67.60
30288;DHT22;17103;48.316;11.558;2023-07-13T03:49:03;22.70;67.50
30288;DHT22;17103;48.316;11.558;2023-07-13T03:51:29;22.70;67.90
30288;DHT22;17103;48.316;11.558;2023-07-13T03:53:54;22.70;67.50
30288;DHT22;17103;48.316;11.558;2023-07-13T03:56:20;22.80;67.20
30288;DHT22;17103;48.316;11.558;2023-07-13T03:58:48;22.70;67.50
30288;DHT22;17103;48.316;11.558;2023-07-13T04:01:15;22.80;67.50
30288;DHT22;17103;48.316;11.558;2023-07-13T04:03:43;22.90;67.60
30288;DHT22;17103;48.316;11.558;2023-07-13T04:06:25;22.90;67.70
30288;DHT22;17103;48.316;11.558;2023-07-13T04:08:53;22.80;67.30
30288;DHT22;17103;48.316;11.558;2023-07-13T04:11:21;22.90;66.90
30288;DHT22;17103;48.316;11.558;2023-07-13T04:13:47;22.90;66.90
30288;DHT22;17103;48.316;11.558;2023-07-13T04:16:14;22.90;66.30
30288;DHT22;17103;48.316;11.558;2023-07-13T04:18:41;22.90;66.50
30288;DHT22;17103;48.316;11.558;2023-07-13T04:21:08;22.90;66.30
30288;DHT22;17103;48.316;11.558;2023-07-13T04:23:35;22.90;66.00
30288;DHT22;17103;48.316;11.558;2023-07-13T04:26:01;23.00;65.70
30288;DHT22;17103;48.316;11.558;2023-07-13T04:28:27;22.80;65.50
30288;DHT22;17103;48.316;11.558;2023-07-13T04:30:53;22.90;65.60
30288;DHT22;17103;48.316;11.558;2023-07-13T04:33:19;22.90;65.50
30288;DHT22;17103;48.316;11.558;2023-07-13T04:35:51;22.90;65.70
30288;DHT22;17103;48.316;11.558;2023-07-13T04:38:23;22.90;66.00
30288;DHT22;17103;48.316;11.558;2023-07-13T04:40:50;22.80;66.00
30288;DHT22;17103;48.316;11.558;2023-07-13T04:43:18;22.80;66.00
30288;DHT22;17103;48.316;11.558;2023-07-13T04:45:43;22.80;66.10
30288;DHT22;17103;48.316;11.558;2023-07-13T04:48:09;22.80;65.90
30288;DHT22;17103;48.316;11.558;2023-07-13T04:50:38;22.80;65.80
30288;DHT22;17103;48.316;11.558;2023-07-13T04:53:04;22.70;65.60
30288;DHT22;17103;48.316;11.558;2023-07-13T04:55:30;22.70;65.70
30288;DHT22;17103;48.316;11.558;2023-07-13T04:57:57;22.70;65.80
30288;DHT22;17103;48.316;11.558;2023-07-13T05:00:24;22.70;65.70
30288;DHT22;17103;48.316;11.558;2023-07-13T05:02:50;22.70;65.70
30288;DHT22;17103;48.316;11.558;2023-07-13T05:05:16;22.60;65.80
30288;DHT22;17103;48.316;11.558;2023-07-13T05:07:42;22.60;66.10
30288;DHT22;17103;48.316;11.558;2023-07-13T05:10:09;22.60;66.00
30288;DHT22;17103;48.316;11.558;2023-07-13T05:12:35;22.60;65.90
30288;DHT22;17103;48.316;11.558;2023-07-13T05:15:01;22.60;66.00
30288;DHT22;17103;48.316;11.558;2023-07-13T05:17:27;22.50;66.00
30288;DHT22;17103;48.316;11.558;2023-07-13T05:19:53;22.50;66.30
30288;DHT22;17103;48.316;11.558;2023-07-13T05:22:18;22.50;66.60
30288;DHT22;17103;48.316;11.558;2023-07-13T05:24:44;22.50;66.40
30288;DHT22;17103;48.316;11.558;2023-07-13T05:27:09;22.50;66.30
30288;DHT22;17103;48.316;11.558;2023-07-13T05:29:35;22.50;66.40
30288;DHT22;17103;48.316;11.558;2023-07-13T05:32:01;22.50;66.60
30288;DHT22;17103;48.316;11.558;2023-07-13T05:34:26;22.40;66.70
30288;DHT22;17103;48.316;11.558;2023-07-13T05:36:52;22.40;66.40
30288;DHT22;17103;48.316;11.558;2023-07-13T05:39:19;22.40;66.60
30288;DHT22;17103;48.316;11.558;2023-07-13T05:41:44;22.40;67.00
30288;DHT22;17103;48.316;11.558;2023-07-13T05:44:10;22.40;67.00
30288;DHT22;17103;48.316;11.558;2023-07-13T05:46:36;22.40;67.00
30288;DHT22;17103;48.316;11.558;2023-07-13T05:49:02;22.40;66.80
30288;DHT22;17103;48.316;11.558;2023-07-13T05:51:29;22.40;67.00
30288;DHT22;17103;48.316;11.558;2023-07-13T05:53:54;22.40;67.10
30288;DHT22;17103;48.316;11.558;2023-07-13T05:56:20;22.40;67.10
30288;DHT22;17103;48.316;11.558;2023-07-13T05:58:48;22.40;66.90
30288;DHT22;17103;48.316;11.558;2023-07-13T06:01:15;22.30;67.50
30288;DHT22;17103;48.316;11.558;2023-07-13T06:03:41;22.40;68.10
30288;DHT22;17103;48.316;11.558;2023-07-13T06:06:09;22.40;67.80
30288;DHT22;17103;48.316;11.558;2023-07-13T06:08:35;22.40;67.80
30288;DHT22;17103;48.316;11.558;2023-07-13T06:11:06;22.40;68.80
30288;DHT22;17103;48.316;11.558;2023-07-13T06:13:32;22.40;67.80
30288;DHT22;17103;48.316;11.558;2023-07-13T06:15:58;22.40;67.40
30288;DHT22;17103;48.316;11.558;2023-07-13T06:18:24;22.40;66.80
30288;DHT22;17103;48.316;11.558;2023-07-13T06:20:50;22.40;65.90
30288;DHT22;17103;48.316;11.558;2023-07-13T06:23:15;22.40;65.40
30288;DHT22;17103;48.316;11.558;2023-07-13T06:25:41;22.50;63.80
30288;DHT22;17103;48.316;11.558;2023-07-13T06:28:08;22.50;63.30
30288;DHT22;17103;48.316;11.558;2023-07-13T06:30:33;22.50;63.10
30288;DHT22;17103;48.316;11.558;2023-07-13T06:33:00;22.50;61.90
30288;DHT22;17103;48.316;11.558;2023-07-13T06:35:26;22.50;62.00
30288;DHT22;17103;48.316;11.558;2023-07-13T06:37:51;22.50;61.60
30288;DHT22;17103;48.316;11.558;2023-07-13T06:40:17;22.60;61.40
30288;DHT22;17103;48.316;11.558;2023-07-13T06:42:43;22.60;61.40
30288;DHT22;17103;48.316;11.558;2023-07-13T06:45:09;22.60;60.80
30288;DHT22;17103;48.316;11.558;2023-07-13T06:47:34;22.60;59.80
30288;DHT22;17103;48.316;11.558;2023-07-13T06:50:01;22.70;58.40
30288;DHT22;17103;48.316;11.558;2023-07-13T06:52:26;22.60;56.40
30288;DHT22;17103;48.316;11.558;2023-07-13T06:54:52;22.60;56.70
30288;DHT22;17103;48.316;11.558;2023-07-13T06:57:18;22.60;57.00
30288;DHT22;17103;48.316;11.558;2023-07-13T06:59:43;22.60;57.00
30288;DHT22;17103;48.316;11.558;2023-07-13T07:02:10;22.60;57.70
30288;DHT22;17103;48.316;11.558;2023-07-13T07:04:36;22.60;56.30
30288;DHT22;17103;48.316;11.558;2023-07-13T07:07:02;22.60;57.00
30288;DHT22;17103;48.316;11.558;2023-07-13T07:09:28;22.60;57.90
30288;DHT22;17103;48.316;11.558;2023-07-13T07:11:56;22.60;57.70
30288;DHT22;17103;48.316;11.558;2023-07-13T07:14:22;22.60;57.50
30288;DHT22;17103;48.316;11.558;2023-07-13T07:16:49;22.60;56.50
30288;DHT22;17103;48.316;11.558;2023-07-13T07:19:15;22.60;56.70
30288;DHT22;17103;48.316;11.558;2023-07-13T07:21:41;22.60;56.40
30288;DHT22;17103;48.316;11.558;2023-07-13T07:24:06;22.60;57.00
30288;DHT22;17103;48.316;11.558;2023-07-13T07:26:33;22.70;57.50
30288;DHT22;17103;48.316;11.558;2023-07-13T07:29:00;22.70;56.60
30288;DHT22;17103;48.316;11.558;2023-07-13T07:31:25;22.70;55.80
30288;DHT22;17103;48.316;11.558;2023-07-13T07:33:51;22.60;55.40
30288;DHT22;17103;48.316;11.558;2023-07-13T07:36:17;22.60;54.70
30288;DHT22;17103;48.316;11.558;2023-07-13T07:38:43;22.50;55.30
30288;DHT22;17103;48.316;11.558;2023-07-13T07:41:09;22.60;55.60
30288;DHT22;17103;48.316;11.558;2023-07-13T07:43:35;22.50;55.90
30288;DHT22;17103;48.316;11.558;2023-07-13T07:46:03;22.50;56.50
30288;DHT22;17103;48.316;11.558;2023-07-13T07:48:28;22.50;56.70
30288;DHT22;17103;48.316;11.558;2023-07-13T07:50:54;22.50;56.60
30288;DHT22;17103;48.316;11.558;2023-07-13T07:53:20;22.50;56.70
30288;DHT22;17103;48.316;11.558;2023-07-13T07:55:46;22.50;56.70
30288;DHT22;17103;48.316;11.558;2023-07-13T07:58:12;22.50;56.70
30288;DHT22;17103;48.316;11.558;2023-07-13T08:00:38;22.50;55.70
30288;DHT22;17103;48.316;11.558;2023-07-13T08:03:04;22.50;56.10
30288;DHT22;17103;48.316;11.558;2023-07-13T08:05:29;22.50;55.40
30288;DHT22;17103;48.316;11.558;2023-07-13T08:07:56;22.40;55.30
30288;DHT22;17103;48.316;11.558;2023-07-13T08:10:22;22.30;55.60
30288;DHT22;17103;48.316;11.558;2023-07-13T08:12:47;22.30;56.30
30288;DHT22;17103;48.316;11.558;2023-07-13T08:15:15;22.30;56.50
30288;DHT22;17103;48.316;11.558;2023-07-13T08:17:41;22.30;56.40
30288;DHT22;17103;48.316;11.558;2023-07-13T08:20:07;22.30;56.60
30288;DHT22;17103;48.316;11.558;2023-07-13T08:22:34;22.20;55.40
30288;DHT22;17103;48.316;11.558;2023-07-13T08:25:00;22.20;55.60
30288;DHT22;17103;48.316;11.558;2023-07-13T08:27:28;22.20;55.40
30288;DHT22;17103;48.316;11.558;2023-07-13T08:29:54;22.20;55.20
30288;DHT22;17103;48.316;11.558;2023-07-13T08:32:21;22.20;54.80
30288;DHT22;17103;48.316;11.558;2023-07-13T08:34:47;22.10;54.80
30288;DHT22;17103;48.316;11.558;2023-07-13T08:37:13;22.10;54.70
30288;DHT22;17103;48.316;11.558;2023-07-13T08:39:39;22.00;55.10
30288;DHT22;17103;48.316;11.558;2023-07-13T08:42:11;22.10;54.90
30288;DHT22;17103;48.316;11.558;2023-07-13T08:47:16;22.20;55.40
30288;DHT22;17103;48.316;11.558;2023-07-13T08:49:44;22.30;55.10
30288;DHT22;17103;48.316;11.558;2023-07-13T08:52:22;22.30;55.20
30288;DHT22;17103;48.316;11.558;2023-07-13T08:54:52;22.30;54.80
30288;DHT22;17103;48.316;11.558;2023-07-13T08:57:26;22.40;54.10
30288;DHT22;17103;48.316;11.558;2023-07-13T08:59:55;22.40;53.20
30288;DHT22;17103;48.316;11.558;2023-07-13T09:02:50;22.40;53.20
30288;DHT22;17103;48.316;11.558;2023-07-13T09:11:10;22.50;52.30
30288;DHT22;17103;48.316;11.558;2023-07-13T09:13:55;22.50;52.90
30288;DHT22;17103;48.316;11.558;2023-07-13T09:16:22;22.50;53.00
30288;DHT22;17103;48.316;11.558;2023-07-13T09:18:50;22.50;53.20
30288;DHT22;17103;48.316;11.558;2023-07-13T09:21:39;22.60;52.90
30288;DHT22;17103;48.316;11.558;2023-07-13T09:24:41;22.60;52.70
30288;DHT22;17103;48.316;11.558;2023-07-13T09:27:25;22.70;52.60
30288;DHT22;17103;48.316;11.558;2023-07-13T09:32:47;22.70;52.00
30288;DHT22;17103;48.316;11.558;2023-07-13T09:35:20;22.80;52.60
30288;DHT22;17103;48.316;11.558;2023-07-13T09:37:47;22.90;51.50
30288;DHT22;17103;48.316;11.558;2023-07-13T09:40:36;22.90;51.30
30288;DHT22;17103;48.316;11.558;2023-07-13T09:43:05;23.00;51.40
30288;DHT22;17103;48.316;11.558;2023-07-13T09:45:34;23.00;51.70
30288;DHT22;17103;48.316;11.558;2023-07-13T09:48:05;23.10;50.00
30288;DHT22;17103;48.316;11.558;2023-07-13T09:50:31;23.10;49.60
30288;DHT22;17103;48.316;11.558;2023-07-13T09:52:57;23.10;49.70
30288;DHT22;17103;48.316;11.558;2023-07-13T09:55:33;23.20;49.80
30288;DHT22;17103;48.316;11.558;2023-07-13T09:58:10;23.20;49.20
30288;DHT22;17103;48.316;11.558;2023-07-13T10:00:37;23.20;48.80
30288;DHT22;17103;48.316;11.558;2023-07-13T10:03:20;23.30;49.50
30288;DHT22;17103;48.316;11.558;2023-07-13T10:05:49;23.30;49.20
30288;DHT22;17103;48.316;11.558;2023-07-13T10:08:27;23.40;50.10
30288;DHT22;17103;48.316;11.558;2023-07-13T10:11:01;23.40;48.00
30288;DHT22;17103;48.316;11.558;2023-07-13T10:13:37;23.40;48.60
30288;DHT22;17103;48.316;11.558;2023-07-13T10:16:04;23.50;48.90
30288;DHT22;17103;48.316;11.558;2023-07-13T10:21:22;23.60;48.30
30288;DHT22;17103;48.316;11.558;2023-07-13T10:23:55;23.60;48.40
30288;DHT22;17103;48.316;11.558;2023-07-13T10:26:31;23.60;48.00
30288;DHT22;17103;48.316;11.558;2023-07-13T10:29:00;23.60;48.30
30288;DHT22;17103;48.316;11.558;2023-07-13T10:31:30;23.70;48.00
30288;DHT22;17103;48.316;11.558;2023-07-13T10:33:56;23.80;46.80
30288;DHT22;17103;48.316;11.558;2023-07-13T10:36:41;23.90;47.10
30288;DHT22;17103;48.316;11.558;2023-07-13T10:39:20;23.90;47.40
30288;DHT22;17103;48.316;11.558;2023-07-13T10:41:54;24.00;47.40
30288;DHT22;17103;48.316;11.558;2023-07-13T10:44:25;24.00;46.50
30288;DHT22;17103;48.316;11.558;2023-07-13T10:47:15;24.10;47.70
30288;DHT22;17103;48.316;11.558;2023-07-13T10:49:43;24.20;47.40
30288;DHT22;17103;48.316;11.558;2023-07-13T10:52:51;24.30;47.80
30288;DHT22;17103;48.316;11.558;2023-07-13T10:55:41;24.40;45.60
30288;DHT22;17103;48.316;11.558;2023-07-13T10:58:22;24.50;46.30
30288;DHT22;17103;48.316;11.558;2023-07-13T11:03:35;24.60;45.40
30288;DHT22;17103;48.316;11.558;2023-07-13T11:06:34;24.70;44.90
30288;DHT22;17103;48.316;11.558;2023-07-13T11:11:56;24.80;43.00
30288;DHT22;17103;48.316;11.558;2023-07-13T11:14:31;24.80;43.00
30288;DHT22;17103;48.316;11.558;2023-07-13T11:23:17;24.90;42.10
30288;DHT22;17103;48.316;11.558;2023-07-13T11:25:45;25.00;43.40
30288;DHT22;17103;48.316;11.558;2023-07-13T11:30:48;25.00;43.40
30288;DHT22;17103;48.316;11.558;2023-07-13T11:33:17;25.10;43.30
30288;DHT22;17103;48.316;11.558;2023-07-13T11:38:22;25.20;44.30
30288;DHT22;17103;48.316;11.558;2023-07-13T11:40:52;25.30;43.90
30288;DHT22;17103;48.316;11.558;2023-07-13T11:43:18;25.30;42.80
30288;DHT22;17103;48.316;11.558;2023-07-13T11:45:44;25.40;42.90
30288;DHT22;17103;48.316;11.558;2023-07-13T11:48:23;25.40;43.70
30288;DHT22;17103;48.316;11.558;2023-07-13T11:51:01;25.50;42.40
30288;DHT22;17103;48.316;11.558;2023-07-13T11:53:37;25.60;42.60
30288;DHT22;17103;48.316;11.558;2023-07-13T11:56:04;25.60;42.80
30288;DHT22;17103;48.316;11.558;2023-07-13T11:58:30;25.70;43.70
30288;DHT22;17103;48.316;11.558;2023-07-13T12:00:58;25.80;43.00
30288;DHT22;17103;48.316;11.558;2023-07-13T12:03:26;25.80;43.40
30288;DHT22;17103;48.316;11.558;2023-07-13T12:06:02;26.00;43.80
30288;DHT22;17103;48.316;11.558;2023-07-13T12:08:28;26.10;42.00
30288;DHT22;17103;48.316;11.558;2023-07-13T12:11:05;26.10;41.00
30288;DHT22;17103;48.316;11.558;2023-07-13T12:13:36;26.20;40.80
30288;DHT22;17103;48.316;11.558;2023-07-13T12:16:25;26.30;39.80
30288;DHT22;17103;48.316;11.558;2023-07-13T12:18:52;26.30;41.00
30288;DHT22;17103;48.316;11.558;2023-07-13T12:21:19;26.40;39.50
30288;DHT22;17103;48.316;11.558;2023-07-13T12:23:53;26.40;39.40
30288;DHT22;17103;48.316;11.558;2023-07-13T12:26:19;26.50;39.30
30288;DHT22;17103;48.316;11.558;2023-07-13T12:28:52;26.50;39.50
30288;DHT22;17103;48.316;11.558;2023-07-13T12:31:36;26.50;38.50
30288;DHT22;17103;48.316;11.558;2023-07-13T12:36:37;26.50;37.50
30288;DHT22;17103;48.316;11.558;2023-07-13T12:39:20;26.50;37.40
30288;DHT22;17103;48.316;11.558;2023-07-13T12:41:50;26.50;37.10
30288;DHT22;17103;48.316;11.558;2023-07-13T12:44:28;26.50;37.20
30288;DHT22;17103;48.316;11.558;2023-07-13T12:47:04;26.50;37.60
30288;DHT22;17103;48.316;11.558;2023-07-13T12:49:31;26.50;36.40
30288;DHT22;17103;48.316;11.558;2023-07-13T12:52:09;26.30;36.70
30288;DHT22;17103;48.316;11.558;2023-07-13T12:54:39;26.40;37.40
30288;DHT22;17103;48.316;11.558;2023-07-13T12:57:05;26.40;37.20
30288;DHT22;17103;48.316;11.558;2023-07-13T12:59:34;26.40;37.10
30288;DHT22;17103;48.316;11.558;2023-07-13T13:02:02;26.40;39.00
30288;DHT22;17103;48.316;11.558;2023-07-13T13:04:41;26.40;38.10
30288;DHT22;17103;48.316;11.558;2023-07-13T13:07:09;26.40;37.60
30288;DHT22;17103;48.316;11.558;2023-07-13T13:09:35;26.50;36.70
30288;DHT22;17103;48.316;11.558;2023-07-13T13:12:01;26.50;37.00
30288;DHT22;17103;48.316;11.558;2023-07-13T13:14:26;26.50;37.30
30288;DHT22;17103;48.316;11.558;2023-07-13T13:16:53;26.50;37.10
30288;DHT22;17103;48.316;11.558;2023-07-13T13:19:20;26.60;37.30
30288;DHT22;17103;48.316;11.558;2023-07-13T13:21:47;26.60;37.30
30288;DHT22;17103;48.316;11.558;2023-07-13T13:24:15;26.70;37.00
30288;DHT22;17103;48.316;11.558;2023-07-13T13:26:43;26.70;37.60
30288;DHT22;17103;48.316;11.558;2023-07-13T13:29:17;26.70;36.80
30288;DHT22;17103;48.316;11.558;2023-07-13T13:31:43;26.80;36.80
30288;DHT22;17103;48.316;11.558;2023-07-13T13:34:15;26.80;37.70
30288;DHT22;17103;48.316;11.558;2023-07-13T13:36:41;26.90;38.00
30288;DHT22;17103;48.316;11.558;2023-07-13T13:39:24;26.90;37.70
30288;DHT22;17103;48.316;11.558;2023-07-13T13:41:52;27.00;36.80
30288;DHT22;17103;48.316;11.558;2023-07-13T13:44:19;27.00;37.40
30288;DHT22;17103;48.316;11.558;2023-07-13T13:46:47;27.00;37.30
30288;DHT22;17103;48.316;11.558;2023-07-13T13:49:16;27.00;36.70
30288;DHT22;17103;48.316;11.558;2023-07-13T13:51:43;27.00;36.30
30288;DHT22;17103;48.316;11.558;2023-07-13T13:54:16;27.00;36.40
30288;DHT22;17103;48.316;11.558;2023-07-13T13:56:43;27.00;36.30
30288;DHT22;17103;48.316;11.558;2023-07-13T13:59:10;27.00;36.20
30288;DHT22;17103;48.316;11.558;2023-07-13T14:01:36;26.90;36.30
30288;DHT22;17103;48.316;11.558;2023-07-13T14:04:03;26.90;36.60
30288;DHT22;17103;48.316;11.558;2023-07-13T14:06:29;27.00;36.90
30288;DHT22;17103;48.316;11.558;2023-07-13T14:08:55;26.90;35.90
30288;DHT22;17103;48.316;11.558;2023-07-13T14:11:23;27.00;36.40
30288;DHT22;17103;48.316;11.558;2023-07-13T14:13:57;27.00;36.40
30288;DHT22;17103;48.316;11.558;2023-07-13T14:16:27;27.00;36.30
30288;DHT22;17103;48.316;11.558;2023-07-13T14:18:55;27.10;35.70
30288;DHT22;17103;48.316;11.558;2023-07-13T14:21:24;27.20;36.70
30288;DHT22;17103;48.316;11.558;2023-07-13T14:23:50;27.30;36.60
30288;DHT22;17103;48.316;11.558;2023-07-13T14:26:22;27.40;36.10
30288;DHT22;17103;48.316;11.558;2023-07-13T14:28:52;27.60;36.40
30288;DHT22;17103;48.316;11.558;2023-07-13T14:31:18;27.60;36.50
30288;DHT22;17103;48.316;11.558;2023-07-13T14:33:44;27.70;36.10
30288;DHT22;17103;48.316;11.558;2023-07-13T14:36:34;27.70;36.20
30288;DHT22;17103;48.316;11.558;2023-07-13T14:39:19;27.70;35.00
30288;DHT22;17103;48.316;11.558;2023-07-13T14:41:45;27.70;35.50
30288;DHT22;17103;48.316;11.558;2023-07-13T14:44:12;27.70;35.70
30288;DHT22;17103;48.316;11.558;2023-07-13T14:46:38;27.70;35.50
30288;DHT22;17103;48.316;11.558;2023-07-13T14:51:39;27.70;36.30
30288;DHT22;17103;48.316;11.558;2023-07-13T14:54:08;27.70;36.10
30288;DHT22;17103;48.316;11.558;2023-07-13T14:56:34;27.70;35.80
30288;DHT22;17103;48.316;11.558;2023-07-13T14:59:00;27.70;35.90
30288;DHT22;17103;48.316;11.558;2023-07-13T15:01:26;27.80;36.10
30288;DHT22;17103;48.316;11.558;2023-07-13T15:03:52;27.70;35.00
30288;DHT22;17103;48.316;11.558;2023-07-13T15:06:19;27.70;34.70
30288;DHT22;17103;48.316;11.558;2023-07-13T15:08:45;27.70;35.30
30288;DHT22;17103;48.316;11.558;2023-07-13T15:11:12;27.70;35.70
30288;DHT22;17103;48.316;11.558;2023-07-13T15:13:39;27.70;35.00
30288;DHT22;17103;48.316;11.558;2023-07-13T15:16:26;27.60;35.50
30288;DHT22;17103;48.316;11.558;2023-07-13T15:18:51;27.50;35.50
30288;DHT22;17103;48.316;11.558;2023-07-13T15:21:23;27.60;36.40
30288;DHT22;17103;48.316;11.558;2023-07-13T15:23:50;27.60;36.30
30288;DHT22;17103;48.316;11.558;2023-07-13T15:26:17;27.70;36.50
30288;DHT22;17103;48.316;11.558;2023-07-13T15:28:44;27.80;36.40
30288;DHT22;17103;48.316;11.558;2023-07-13T15:31:36;27.90;36.00
30288;DHT22;17103;48.316;11.558;2023-07-13T15:34:11;28.10;36.50
30288;DHT22;17103;48.316;11.558;2023-07-13T15:36:37;28.20;36.40
30288;DHT22;17103;48.316;11.558;2023-07-13T15:39:03;28.30;36.50
30288;DHT22;17103;48.316;11.558;2023-07-13T15:41:31;28.40;37.10
30288;DHT22;17103;48.316;11.558;2023-07-13T15:43:58;28.50;36.10
30288;DHT22;17103;48.316;11.558;2023-07-13T15:46:26;28.70;36.20
30288;DHT22;17103;48.316;11.558;2023-07-13T15:48:54;28.80;35.90
30288;DHT22;17103;48.316;11.558;2023-07-13T15:51:29;28.90;34.90
30288;DHT22;17103;48.316;11.558;2023-07-13T15:53:57;29.00;35.70
30288;DHT22;17103;48.316;11.558;2023-07-13T15:56:26;29.10;34.20
30288;DHT22;17103;48.316;11.558;2023-07-13T15:58:53;29.20;34.60
30288;DHT22;17103;48.316;11.558;2023-07-13T16:01:19;29.20;34.70
30288;DHT22;17103;48.316;11.558;2023-07-13T16:03:46;29.30;34.40